sensor_id;sensor_type;location;lat;lon;timestamp;pressure;altitude;pressure_sealevel;temperature;humidity
13869;BME280;7004;48.206;16.402;2022-07-04T00:00:46;99774.75;;;20.56;81.40
13869;BME280;7004;48.206;16.402;2022-07-04T00:03:13;99773.31;;;20.51;81.38
13869;BME280;7004;48.206;16.402;2022-07-04T00:05:39;99773.56;;;20.58;81.19
13869;BME280;7004;48.206;16.402;2022-07-04T00:08:05;99776.81;;;20.70;80.76
13869;BME280;7004;48.206;16.402;2022-07-04T00:10:31;99778.53;;;20.79;80.50
13869;BME280;7004;48.206;16.402;2022-07-04T00:12:57;99779.28;;;20.98;79.43
13869;BME280;7004;48.206;16.402;2022-07-04T00:15:24;99782.78;;;20.98;79.92
13869;BME280;7004;48.206;16.402;2022-07-04T00:17:51;99781.97;;;21.06;79.02
13869;BME280;7004;48.206;16.402;2022-07-04T00:20:17;99776.41;;;20.91;80.34
13869;BME280;7004;48.206;16.402;2022-07-04T00:22:44;99779.09;;;20.57;81.60
13869;BME280;7004;48.206;16.402;2022-07-04T00:25:11;99778.47;;;20.37;82.83
13869;BME280;7004;48.206;16.402;2022-07-04T00:27:37;99775.31;;;20.15;83.91
13869;BME280;7004;48.206;16.402;2022-07-04T00:30:04;99770.84;;;19.98;84.98
13869;BME280;7004;48.206;16.402;2022-07-04T00:32:31;99767.56;;;20.12;84.96
13869;BME280;7004;48.206;16.402;2022-07-04T00:34:57;99770.34;;;20.28;83.72
13869;BME280;7004;48.206;16.402;2022-07-04T00:37:23;99768.72;;;20.10;84.96
13869;BME280;7004;48.206;16.402;2022-07-04T00:39:49;99766.19;;;19.64;87.31
13869;BME280;7004;48.206;16.402;2022-07-04T00:42:15;99773.69;;;19.42;89.53
13869;BME280;7004;48.206;16.402;2022-07-04T00:44:42;99773.84;;;19.41;89.29
13869;BME280;7004;48.206;16.402;2022-07-04T00:47:08;99767.88;;;19.47;89.42
13869;BME280;7004;48.206;16.402;2022-07-04T00:49:35;99775.16;;;19.73;88.21
13869;BME280;7004;48.206;16.402;2022-07-04T00:52:02;99775.03;;;19.74;87.67
13869;BME280;7004;48.206;16.402;2022-07-04T00:54:30;99775.97;;;19.91;86.95
13869;BME280;7004;48.206;16.402;2022-07-04T00:56:59;99772.00;;;19.95;86.40
13869;BME280;7004;48.206;16.402;2022-07-04T00:59:26;99765.91;;;20.11;85.56
13869;BME280;7004;48.206;16.402;2022-07-04T01:01:52;99774.88;;;20.02;86.19
13869;BME280;7004;48.206;16.402;2022-07-04T01:04:18;99767.41;;;19.88;87.21
13869;BME280;7004;48.206;16.402;2022-07-04T01:06:44;99772.13;;;19.94;87.33
13869;BME280;7004;48.206;16.402;2022-07-04T01:09:12;99765.75;;;19.95;87.00
13869;BME280;7004;48.206;16.402;2022-07-04T01:11:38;99761.78;;;19.99;86.97
13869;BME280;7004;48.206;16.402;2022-07-04T01:14:05;99759.03;;;19.91;87.53
13869;BME280;7004;48.206;16.402;2022-07-04T01:16:34;99759.38;;;19.88;87.75
13869;BME280;7004;48.206;16.402;2022-07-04T01:19:01;99758.09;;;20.00;87.16
13869;BME280;7004;48.206;16.402;2022-07-04T01:21:27;99760.97;;;19.80;88.38
13869;BME280;7004;48.206;16.402;2022-07-04T01:23:54;99758.44;;;19.79;88.42
13869;BME280;7004;48.206;16.402;2022-07-04T01:26:20;99763.63;;;19.98;87.57
13869;BME280;7004;48.206;16.402;2022-07-04T01:28:48;99754.19;;;19.94;87.78
13869;BME280;7004;48.206;16.402;2022-07-04T01:31:14;99755.63;;;20.06;86.92
13869;BME280;7004;48.206;16.402;2022-07-04T01:33:40;99755.72;;;19.97;87.60
13869;BME280;7004;48.206;16.402;2022-07-04T01:36:06;99757.56;;;19.96;88.12
13869;BME280;7004;48.206;16.402;2022-07-04T01:38:32;99753.63;;;19.64;89.33
13869;BME280;7004;48.206;16.402;2022-07-04T01:40:58;99752.03;;;19.36;91.17
13869;BME280;7004;48.206;16.402;2022-07-04T01:43:25;99759.63;;;19.40;90.87
13869;BME280;7004;48.206;16.402;2022-07-04T01:45:51;99761.03;;;19.17;92.45
13869;BME280;7004;48.206;16.402;2022-07-04T01:48:17;99759.09;;;19.09;93.33
13869;BME280;7004;48.206;16.402;2022-07-04T01:50:44;99763.66;;;19.27;92.54
13869;BME280;7004;48.206;16.402;2022-07-04T01:53:10;99755.75;;;19.07;93.65
13869;BME280;7004;48.206;16.402;2022-07-04T01:55:37;99754.06;;;19.06;94.08
13869;BME280;7004;48.206;16.402;2022-07-04T01:58:03;99750.94;;;19.11;94.10
13869;BME280;7004;48.206;16.402;2022-07-04T02:00:29;99757.00;;;18.85;95.34
13869;BME280;7004;48.206;16.402;2022-07-04T02:03:18;99749.16;;;19.02;94.60
13869;BME280;7004;48.206;16.402;2022-07-04T02:05:44;99750.28;;;18.71;96.22
13869;BME280;7004;48.206;16.402;2022-07-04T02:08:10;99757.41;;;18.90;95.60
13869;BME280;7004;48.206;16.402;2022-07-04T02:10:37;99754.09;;;18.79;96.23
13869;BME280;7004;48.206;16.402;2022-07-04T02:13:03;99749.06;;;18.93;95.21
13869;BME280;7004;48.206;16.402;2022-07-04T02:17:57;99751.25;;;18.80;96.17
13869;BME280;7004;48.206;16.402;2022-07-04T02:20:25;99749.25;;;19.10;94.54
13869;BME280;7004;48.206;16.402;2022-07-04T02:22:51;99749.75;;;18.95;95.42
13869;BME280;7004;48.206;16.402;2022-07-04T02:25:17;99746.91;;;18.79;96.80
13869;BME280;7004;48.206;16.402;2022-07-04T02:27:44;99745.91;;;18.80;96.38
13869;BME280;7004;48.206;16.402;2022-07-04T02:30:10;99740.63;;;18.61;98.19
13869;BME280;7004;48.206;16.402;2022-07-04T02:32:37;99746.63;;;18.45;99.33
13869;BME280;7004;48.206;16.402;2022-07-04T02:35:04;99745.16;;;18.60;98.82
13869;BME280;7004;48.206;16.402;2022-07-04T02:37:30;99742.38;;;18.80;97.18
13869;BME280;7004;48.206;16.402;2022-07-04T02:39:57;99737.91;;;18.70;97.95
13869;BME280;7004;48.206;16.402;2022-07-04T02:42:23;99733.47;;;18.51;98.64
13869;BME280;7004;48.206;16.402;2022-07-04T02:44:49;99735.56;;;18.58;98.72
13869;BME280;7004;48.206;16.402;2022-07-04T02:47:16;99725.78;;;18.76;97.30
13869;BME280;7004;48.206;16.402;2022-07-04T02:49:42;99735.66;;;18.93;96.37
13869;BME280;7004;48.206;16.402;2022-07-04T02:52:08;99741.31;;;18.90;96.38
13869;BME280;7004;48.206;16.402;2022-07-04T02:54:34;99736.81;;;18.91;96.45
13869;BME280;7004;48.206;16.402;2022-07-04T02:57:00;99737.03;;;18.70;98.26
13869;BME280;7004;48.206;16.402;2022-07-04T02:59:26;99732.28;;;18.64;99.13
13869;BME280;7004;48.206;16.402;2022-07-04T03:01:53;99734.06;;;18.73;98.50
13869;BME280;7004;48.206;16.402;2022-07-04T03:04:19;99728.78;;;18.91;96.93
13869;BME280;7004;48.206;16.402;2022-07-04T03:06:45;99728.25;;;18.87;97.48
13869;BME280;7004;48.206;16.402;2022-07-04T03:09:11;99727.25;;;18.88;96.82
13869;BME280;7004;48.206;16.402;2022-07-04T03:11:37;99726.31;;;18.80;97.59
13869;BME280;7004;48.206;16.402;2022-07-04T03:14:03;99732.91;;;18.58;99.00
13869;BME280;7004;48.206;16.402;2022-07-04T03:16:29;99733.69;;;18.68;98.80
13869;BME280;7004;48.206;16.402;2022-07-04T03:18:55;99736.31;;;18.77;98.04
13869;BME280;7004;48.206;16.402;2022-07-04T03:21:21;99738.56;;;18.82;97.89
13869;BME280;7004;48.206;16.402;2022-07-04T03:23:47;99741.72;;;18.95;97.22
13869;BME280;7004;48.206;16.402;2022-07-04T03:26:28;99741.72;;;18.95;96.79
13869;BME280;7004;48.206;16.402;2022-07-04T03:28:59;99740.13;;;19.03;96.03
13869;BME280;7004;48.206;16.402;2022-07-04T03:31:26;99745.63;;;19.01;96.66
13869;BME280;7004;48.206;16.402;2022-07-04T03:33:53;99752.84;;;19.18;95.96
13869;BME280;7004;48.206;16.402;2022-07-04T03:36:20;99752.00;;;19.18;95.15
13869;BME280;7004;48.206;16.402;2022-07-04T03:38:47;99751.59;;;18.95;96.78
13869;BME280;7004;48.206;16.402;2022-07-04T03:41:14;99744.34;;;19.05;96.54
13869;BME280;7004;48.206;16.402;2022-07-04T03:43:41;99750.66;;;18.86;97.63
13869;BME280;7004;48.206;16.402;2022-07-04T03:46:07;99754.03;;;18.88;98.09
13869;BME280;7004;48.206;16.402;2022-07-04T03:48:33;99750.28;;;18.81;98.92
13869;BME280;7004;48.206;16.402;2022-07-04T03:50:59;99761.00;;;18.81;99.23
13869;BME280;7004;48.206;16.402;2022-07-04T03:53:25;99762.53;;;18.84;99.34
13869;BME280;7004;48.206;16.402;2022-07-04T03:55:51;99758.50;;;18.97;98.63
13869;BME280;7004;48.206;16.402;2022-07-04T03:58:17;99764.94;;;19.05;98.09
13869;BME280;7004;48.206;16.402;2022-07-04T04:00:43;99764.28;;;18.93;98.91
13869;BME280;7004;48.206;16.402;2022-07-04T04:03:10;99767.38;;;18.98;99.43
13869;BME280;7004;48.206;16.402;2022-07-04T04:05:56;99772.28;;;19.03;99.69
13869;BME280;7004;48.206;16.402;2022-07-04T04:08:22;99773.81;;;19.05;99.49
13869;BME280;7004;48.206;16.402;2022-07-04T04:10:49;99779.25;;;19.13;98.96
13869;BME280;7004;48.206;16.402;2022-07-04T04:13:19;99784.31;;;19.16;98.64
13869;BME280;7004;48.206;16.402;2022-07-04T04:15:45;99781.50;;;19.18;98.71
13869;BME280;7004;48.206;16.402;2022-07-04T04:18:11;99781.72;;;19.42;97.32
13869;BME280;7004;48.206;16.402;2022-07-04T04:20:37;99787.25;;;19.59;96.09
13869;BME280;7004;48.206;16.402;2022-07-04T04:23:03;99796.06;;;19.51;97.06
13869;BME280;7004;48.206;16.402;2022-07-04T04:25:29;99795.81;;;19.62;96.85
13869;BME280;7004;48.206;16.402;2022-07-04T04:27:55;99790.16;;;19.65;96.96
13869;BME280;7004;48.206;16.402;2022-07-04T04:30:21;99791.31;;;19.81;95.94
13869;BME280;7004;48.206;16.402;2022-07-04T04:32:47;99788.88;;;19.88;96.21
13869;BME280;7004;48.206;16.402;2022-07-04T04:35:13;99806.25;;;19.83;96.99
13869;BME280;7004;48.206;16.402;2022-07-04T04:37:39;99800.34;;;19.98;96.32
13869;BME280;7004;48.206;16.402;2022-07-04T04:40:06;99793.13;;;19.98;96.42
13869;BME280;7004;48.206;16.402;2022-07-04T04:42:33;99799.63;;;20.14;94.52
13869;BME280;7004;48.206;16.402;2022-07-04T04:44:59;99795.63;;;20.18;95.22
13869;BME280;7004;48.206;16.402;2022-07-04T04:47:25;99798.19;;;20.27;96.01
13869;BME280;7004;48.206;16.402;2022-07-04T04:49:51;99800.00;;;20.45;94.99
13869;BME280;7004;48.206;16.402;2022-07-04T04:52:17;99803.94;;;20.59;92.44
13869;BME280;7004;48.206;16.402;2022-07-04T04:54:43;99808.56;;;20.75;92.48
13869;BME280;7004;48.206;16.402;2022-07-04T04:57:09;99814.75;;;20.75;92.11
13869;BME280;7004;48.206;16.402;2022-07-04T04:59:35;99820.28;;;21.08;90.60
13869;BME280;7004;48.206;16.402;2022-07-04T05:02:01;99818.66;;;21.23;89.02
13869;BME280;7004;48.206;16.402;2022-07-04T05:04:28;99822.44;;;21.38;88.68
13869;BME280;7004;48.206;16.402;2022-07-04T05:06:54;99809.69;;;21.49;88.07
13869;BME280;7004;48.206;16.402;2022-07-04T05:09:20;99816.44;;;21.61;86.39
13869;BME280;7004;48.206;16.402;2022-07-04T05:11:47;99820.28;;;21.67;85.50
13869;BME280;7004;48.206;16.402;2022-07-04T05:14:14;99821.97;;;21.76;84.79
13869;BME280;7004;48.206;16.402;2022-07-04T05:16:40;99821.13;;;21.75;84.92
13869;BME280;7004;48.206;16.402;2022-07-04T05:19:06;99828.38;;;21.91;84.43
13869;BME280;7004;48.206;16.402;2022-07-04T05:21:32;99835.94;;;21.79;83.13
13869;BME280;7004;48.206;16.402;2022-07-04T05:23:58;99831.22;;;21.81;82.24
13869;BME280;7004;48.206;16.402;2022-07-04T05:26:25;99834.41;;;22.01;82.08
13869;BME280;7004;48.206;16.402;2022-07-04T05:28:51;99832.25;;;22.13;81.86
13869;BME280;7004;48.206;16.402;2022-07-04T05:31:18;99823.34;;;22.21;81.71
13869;BME280;7004;48.206;16.402;2022-07-04T05:33:44;99834.47;;;22.26;78.80
13869;BME280;7004;48.206;16.402;2022-07-04T05:36:10;99829.03;;;22.42;79.11
13869;BME280;7004;48.206;16.402;2022-07-04T05:38:36;99824.88;;;22.79;78.32
13869;BME280;7004;48.206;16.402;2022-07-04T05:41:02;99828.94;;;22.83;74.69
13869;BME280;7004;48.206;16.402;2022-07-04T05:43:28;99820.38;;;22.72;74.81
13869;BME280;7004;48.206;16.402;2022-07-04T05:45:54;99818.97;;;22.84;73.94
13869;BME280;7004;48.206;16.402;2022-07-04T05:48:20;99820.84;;;22.83;75.87
13869;BME280;7004;48.206;16.402;2022-07-04T05:50:47;99820.56;;;22.62;76.57
13869;BME280;7004;48.206;16.402;2022-07-04T05:53:13;99814.13;;;22.71;77.87
13869;BME280;7004;48.206;16.402;2022-07-04T05:55:39;99813.63;;;22.76;77.65
13869;BME280;7004;48.206;16.402;2022-07-04T05:58:05;99815.78;;;22.88;77.93
13869;BME280;7004;48.206;16.402;2022-07-04T06:00:31;99827.19;;;23.07;76.21
13869;BME280;7004;48.206;16.402;2022-07-04T06:02:57;99832.31;;;23.25;76.01
13869;BME280;7004;48.206;16.402;2022-07-04T06:05:23;99831.13;;;23.27;75.42
13869;BME280;7004;48.206;16.402;2022-07-04T06:07:49;99833.25;;;23.32;76.07
13869;BME280;7004;48.206;16.402;2022-07-04T06:10:15;99843.94;;;23.25;75.29
13869;BME280;7004;48.206;16.402;2022-07-04T06:12:42;99842.59;;;23.21;75.13
13869;BME280;7004;48.206;16.402;2022-07-04T06:15:08;99845.34;;;23.44;73.60
13869;BME280;7004;48.206;16.402;2022-07-04T06:17:36;99847.91;;;23.69;72.84
13869;BME280;7004;48.206;16.402;2022-07-04T06:20:04;99844.72;;;23.88;72.02
13869;BME280;7004;48.206;16.402;2022-07-04T06:22:45;99843.25;;;23.86;71.56
13869;BME280;7004;48.206;16.402;2022-07-04T06:25:17;99849.41;;;23.71;72.56
13869;BME280;7004;48.206;16.402;2022-07-04T06:27:46;99847.56;;;23.95;72.66
13869;BME280;7004;48.206;16.402;2022-07-04T06:30:12;99855.53;;;23.88;71.30
13869;BME280;7004;48.206;16.402;2022-07-04T06:32:56;99855.22;;;23.83;69.93
13869;BME280;7004;48.206;16.402;2022-07-04T06:35:29;99861.66;;;24.05;70.38
13869;BME280;7004;48.206;16.402;2022-07-04T06:38:17;99875.75;;;24.15;70.33
13869;BME280;7004;48.206;16.402;2022-07-04T06:40:44;99881.84;;;23.94;71.01
13869;BME280;7004;48.206;16.402;2022-07-04T06:43:12;99879.13;;;23.94;69.64
13869;BME280;7004;48.206;16.402;2022-07-04T06:45:38;99887.69;;;24.21;70.21
13869;BME280;7004;48.206;16.402;2022-07-04T06:48:06;99881.09;;;24.24;70.71
13869;BME280;7004;48.206;16.402;2022-07-04T06:50:33;99889.19;;;24.24;69.75
13869;BME280;7004;48.206;16.402;2022-07-04T06:53:04;99896.19;;;24.33;70.42
13869;BME280;7004;48.206;16.402;2022-07-04T06:55:32;99900.69;;;24.17;71.52
13869;BME280;7004;48.206;16.402;2022-07-04T06:57:58;99897.88;;;24.34;69.51
13869;BME280;7004;48.206;16.402;2022-07-04T07:00:25;99905.47;;;24.53;69.58
13869;BME280;7004;48.206;16.402;2022-07-04T07:02:51;99911.00;;;24.75;65.65
13869;BME280;7004;48.206;16.402;2022-07-04T07:05:17;99921.03;;;25.19;63.40
13869;BME280;7004;48.206;16.402;2022-07-04T07:07:44;99916.94;;;25.23;60.90
13869;BME280;7004;48.206;16.402;2022-07-04T07:10:10;99917.72;;;25.08;59.36
13869;BME280;7004;48.206;16.402;2022-07-04T07:12:36;99910.56;;;24.86;60.12
13869;BME280;7004;48.206;16.402;2022-07-04T07:15:03;99910.75;;;24.99;58.56
13869;BME280;7004;48.206;16.402;2022-07-04T07:17:29;99910.22;;;25.04;58.05
13869;BME280;7004;48.206;16.402;2022-07-04T07:19:55;99920.13;;;25.63;56.58
13869;BME280;7004;48.206;16.402;2022-07-04T07:22:21;99914.91;;;25.61;57.23
13869;BME280;7004;48.206;16.402;2022-07-04T07:24:47;99921.00;;;25.63;57.20
13869;BME280;7004;48.206;16.402;2022-07-04T07:27:13;99919.56;;;25.67;56.80
13869;BME280;7004;48.206;16.402;2022-07-04T07:29:40;99912.81;;;25.78;57.06
13869;BME280;7004;48.206;16.402;2022-07-04T07:32:06;99895.28;;;25.74;55.98
13869;BME280;7004;48.206;16.402;2022-07-04T07:34:34;99901.59;;;26.18;55.61
13869;BME280;7004;48.206;16.402;2022-07-04T07:37:00;99903.97;;;26.06;56.62
13869;BME280;7004;48.206;16.402;2022-07-04T07:39:27;99902.41;;;26.40;55.38
13869;BME280;7004;48.206;16.402;2022-07-04T07:41:53;99898.28;;;26.72;55.15
13869;BME280;7004;48.206;16.402;2022-07-04T07:44:20;99890.53;;;26.62;55.09
13869;BME280;7004;48.206;16.402;2022-07-04T07:46:46;99901.22;;;26.49;53.48
13869;BME280;7004;48.206;16.402;2022-07-04T07:49:12;99895.56;;;26.22;53.39
13869;BME280;7004;48.206;16.402;2022-07-04T07:51:38;99884.88;;;26.14;54.04
13869;BME280;7004;48.206;16.402;2022-07-04T07:54:05;99903.97;;;25.69;54.71
13869;BME280;7004;48.206;16.402;2022-07-04T07:56:31;99879.63;;;25.69;54.29
13869;BME280;7004;48.206;16.402;2022-07-04T07:58:58;99880.31;;;25.57;53.89
13869;BME280;7004;48.206;16.402;2022-07-04T08:01:24;99884.47;;;25.74;53.80
13869;BME280;7004;48.206;16.402;2022-07-04T08:03:50;99879.06;;;26.17;51.59
13869;BME280;7004;48.206;16.402;2022-07-04T08:06:34;99874.63;;;25.73;52.94
13869;BME280;7004;48.206;16.402;2022-07-04T08:09:01;99873.16;;;25.70;51.07
13869;BME280;7004;48.206;16.402;2022-07-04T08:11:27;99860.88;;;26.11;50.48
13869;BME280;7004;48.206;16.402;2022-07-04T08:13:53;99860.25;;;26.09;49.90
13869;BME280;7004;48.206;16.402;2022-07-04T08:16:19;99850.00;;;26.54;48.87
13869;BME280;7004;48.206;16.402;2022-07-04T08:18:45;99851.50;;;26.56;49.24
13869;BME280;7004;48.206;16.402;2022-07-04T08:21:12;99861.69;;;26.33;48.77
13869;BME280;7004;48.206;16.402;2022-07-04T08:23:40;99853.41;;;27.52;45.69
13869;BME280;7004;48.206;16.402;2022-07-04T08:26:06;99850.59;;;27.19;45.98
13869;BME280;7004;48.206;16.402;2022-07-04T08:28:32;99851.34;;;27.54;46.08
13869;BME280;7004;48.206;16.402;2022-07-04T08:30:59;99836.09;;;27.53;45.28
13869;BME280;7004;48.206;16.402;2022-07-04T08:33:25;99834.09;;;27.82;45.86
13869;BME280;7004;48.206;16.402;2022-07-04T08:35:52;99836.53;;;27.63;45.27
13869;BME280;7004;48.206;16.402;2022-07-04T08:38:19;99837.13;;;27.45;45.18
13869;BME280;7004;48.206;16.402;2022-07-04T08:40:46;99838.03;;;27.79;45.42
13869;BME280;7004;48.206;16.402;2022-07-04T08:43:14;99845.53;;;27.77;45.44
13869;BME280;7004;48.206;16.402;2022-07-04T08:45:41;99856.84;;;27.81;45.25
13869;BME280;7004;48.206;16.402;2022-07-04T08:48:09;99849.91;;;27.65;46.29
13869;BME280;7004;48.206;16.402;2022-07-04T08:50:48;99865.75;;;27.13;46.90
13869;BME280;7004;48.206;16.402;2022-07-04T08:53:19;99867.44;;;26.73;46.51
13869;BME280;7004;48.206;16.402;2022-07-04T08:55:48;99863.63;;;27.02;46.35
13869;BME280;7004;48.206;16.402;2022-07-04T08:58:33;99869.78;;;26.83;46.41
13869;BME280;7004;48.206;16.402;2022-07-04T09:01:08;99879.16;;;26.80;46.70
13869;BME280;7004;48.206;16.402;2022-07-04T09:03:44;99875.88;;;26.91;46.06
13869;BME280;7004;48.206;16.402;2022-07-04T09:06:12;99883.50;;;27.09;47.33
13869;BME280;7004;48.206;16.402;2022-07-04T09:08:39;99888.81;;;26.89;48.22
13869;BME280;7004;48.206;16.402;2022-07-04T09:11:06;99886.91;;;26.83;47.63
13869;BME280;7004;48.206;16.402;2022-07-04T09:13:32;99883.88;;;26.71;47.47
13869;BME280;7004;48.206;16.402;2022-07-04T09:16:01;99883.06;;;26.71;47.75
13869;BME280;7004;48.206;16.402;2022-07-04T09:18:34;99889.34;;;26.50;49.41
13869;BME280;7004;48.206;16.402;2022-07-04T09:21:04;99882.53;;;26.54;47.34
13869;BME280;7004;48.206;16.402;2022-07-04T09:23:42;99882.78;;;26.37;47.78
13869;BME280;7004;48.206;16.402;2022-07-04T09:26:21;99876.41;;;26.24;48.47
13869;BME280;7004;48.206;16.402;2022-07-04T09:28:57;99876.34;;;26.17;49.12
13869;BME280;7004;48.206;16.402;2022-07-04T09:31:26;99885.91;;;26.13;50.16
13869;BME280;7004;48.206;16.402;2022-07-04T09:33:55;99881.00;;;26.02;49.42
13869;BME280;7004;48.206;16.402;2022-07-04T09:36:28;99884.63;;;26.09;48.80
13869;BME280;7004;48.206;16.402;2022-07-04T09:39:15;99881.06;;;26.08;49.36
13869;BME280;7004;48.206;16.402;2022-07-04T09:41:54;99873.78;;;26.09;48.66
13869;BME280;7004;48.206;16.402;2022-07-04T09:44:48;99878.63;;;25.92;48.78
13869;BME280;7004;48.206;16.402;2022-07-04T09:47:22;99872.47;;;25.83;49.20
13869;BME280;7004;48.206;16.402;2022-07-04T09:50:06;99864.94;;;25.79;50.01
13869;BME280;7004;48.206;16.402;2022-07-04T09:52:54;99862.47;;;25.84;48.99
13869;BME280;7004;48.206;16.402;2022-07-04T09:55:31;99861.22;;;26.01;49.73
13869;BME280;7004;48.206;16.402;2022-07-04T09:58:03;99866.69;;;26.08;50.58
13869;BME280;7004;48.206;16.402;2022-07-04T10:00:38;99849.97;;;26.04;49.08
13869;BME280;7004;48.206;16.402;2022-07-04T10:03:20;99846.84;;;26.01;49.59
13869;BME280;7004;48.206;16.402;2022-07-04T10:08:39;99844.53;;;25.98;48.97
13869;BME280;7004;48.206;16.402;2022-07-04T10:11:07;99825.63;;;26.32;49.41
13869;BME280;7004;48.206;16.402;2022-07-04T10:13:34;99836.44;;;26.04;50.01
13869;BME280;7004;48.206;16.402;2022-07-04T10:16:00;99831.09;;;26.11;51.69
13869;BME280;7004;48.206;16.402;2022-07-04T10:18:28;99830.47;;;25.87;49.69
13869;BME280;7004;48.206;16.402;2022-07-04T10:20:56;99833.00;;;26.17;50.24
13869;BME280;7004;48.206;16.402;2022-07-04T10:23:24;99830.19;;;25.82;50.97
13869;BME280;7004;48.206;16.402;2022-07-04T10:25:57;99830.28;;;26.17;51.05
13869;BME280;7004;48.206;16.402;2022-07-04T10:28:24;99824.28;;;26.22;51.00
13869;BME280;7004;48.206;16.402;2022-07-04T10:30:56;99846.41;;;25.97;50.16
13869;BME280;7004;48.206;16.402;2022-07-04T10:33:26;99840.75;;;25.77;50.61
13869;BME280;7004;48.206;16.402;2022-07-04T10:38:28;99854.16;;;26.07;49.72
13869;BME280;7004;48.206;16.402;2022-07-04T10:41:05;99830.47;;;26.37;49.31
13869;BME280;7004;48.206;16.402;2022-07-04T10:49:20;99823.47;;;27.26;46.28
13869;BME280;7004;48.206;16.402;2022-07-04T10:52:14;99832.91;;;26.95;47.67
13869;BME280;7004;48.206;16.402;2022-07-04T10:54:43;99824.06;;;28.56;44.89
13869;BME280;7004;48.206;16.402;2022-07-04T10:57:21;99824.28;;;28.01;44.77
13869;BME280;7004;48.206;16.402;2022-07-04T11:02:22;99826.31;;;27.72;44.97
13869;BME280;7004;48.206;16.402;2022-07-04T11:05:32;99812.97;;;28.50;43.98
13869;BME280;7004;48.206;16.402;2022-07-04T11:08:01;99818.22;;;28.19;44.93
13869;BME280;7004;48.206;16.402;2022-07-04T11:10:30;99817.97;;;27.74;45.32
13869;BME280;7004;48.206;16.402;2022-07-04T11:18:11;99812.91;;;28.84;44.48
13869;BME280;7004;48.206;16.402;2022-07-04T11:20:44;99808.28;;;29.43;43.14
13869;BME280;7004;48.206;16.402;2022-07-04T11:23:18;99809.81;;;29.64;42.11
13869;BME280;7004;48.206;16.402;2022-07-04T11:25:48;99808.94;;;30.01;40.65
13869;BME280;7004;48.206;16.402;2022-07-04T11:28:30;99800.69;;;29.83;40.01
13869;BME280;7004;48.206;16.402;2022-07-04T11:31:00;99807.47;;;29.74;41.64
13869;BME280;7004;48.206;16.402;2022-07-04T11:33:30;99802.94;;;29.61;43.01
13869;BME280;7004;48.206;16.402;2022-07-04T11:36:08;99808.38;;;29.23;43.28
13869;BME280;7004;48.206;16.402;2022-07-04T11:39:04;99806.16;;;29.06;42.79
13869;BME280;7004;48.206;16.402;2022-07-04T11:44:30;99810.66;;;29.71;43.28
13869;BME280;7004;48.206;16.402;2022-07-04T11:47:20;99810.22;;;29.29;45.52
13869;BME280;7004;48.206;16.402;2022-07-04T11:49:51;99809.13;;;29.36;44.41
13869;BME280;7004;48.206;16.402;2022-07-04T11:52:25;99800.06;;;29.11;45.10
13869;BME280;7004;48.206;16.402;2022-07-04T11:54:52;99802.19;;;29.09;42.90
13869;BME280;7004;48.206;16.402;2022-07-04T12:00:06;99795.88;;;29.02;41.72
13869;BME280;7004;48.206;16.402;2022-07-04T12:02:35;99793.59;;;29.05;40.96
13869;BME280;7004;48.206;16.402;2022-07-04T12:05:04;99796.28;;;29.50;41.61
13869;BME280;7004;48.206;16.402;2022-07-04T12:07:36;99785.59;;;29.87;41.59
13869;BME280;7004;48.206;16.402;2022-07-04T12:10:31;99783.88;;;30.61;41.04
13869;BME280;7004;48.206;16.402;2022-07-04T12:13:05;99772.03;;;30.49;38.25
13869;BME280;7004;48.206;16.402;2022-07-04T12:15:50;99768.28;;;31.17;40.20
13869;BME280;7004;48.206;16.402;2022-07-04T12:18:29;99763.19;;;30.90;37.65
13869;BME280;7004;48.206;16.402;2022-07-04T12:21:15;99768.81;;;31.56;38.26
13869;BME280;7004;48.206;16.402;2022-07-04T12:23:54;99764.97;;;32.11;35.80
13869;BME280;7004;48.206;16.402;2022-07-04T12:26:21;99764.38;;;32.09;35.63
13869;BME280;7004;48.206;16.402;2022-07-04T12:28:47;99763.44;;;32.15;35.60
13869;BME280;7004;48.206;16.402;2022-07-04T12:31:14;99758.91;;;32.32;36.24
13869;BME280;7004;48.206;16.402;2022-07-04T12:33:54;99763.69;;;32.02;35.20
13869;BME280;7004;48.206;16.402;2022-07-04T12:36:23;99759.91;;;31.72;35.02
13869;BME280;7004;48.206;16.402;2022-07-04T12:38:49;99764.38;;;32.09;34.62
13869;BME280;7004;48.206;16.402;2022-07-04T12:41:15;99765.34;;;32.14;34.94
13869;BME280;7004;48.206;16.402;2022-07-04T12:46:30;99767.72;;;32.46;33.32
13869;BME280;7004;48.206;16.402;2022-07-04T12:48:59;99773.44;;;32.56;34.12
13869;BME280;7004;48.206;16.402;2022-07-04T12:51:28;99780.09;;;32.25;33.80
13869;BME280;7004;48.206;16.402;2022-07-04T12:53:57;99783.28;;;32.22;33.96
13869;BME280;7004;48.206;16.402;2022-07-04T12:56:35;99779.97;;;32.20;33.85
13869;BME280;7004;48.206;16.402;2022-07-04T12:59:11;99774.16;;;32.05;34.06
13869;BME280;7004;48.206;16.402;2022-07-04T13:01:40;99772.47;;;32.04;32.31
13869;BME280;7004;48.206;16.402;2022-07-04T13:04:07;99773.94;;;31.34;33.83
13869;BME280;7004;48.206;16.402;2022-07-04T13:06:38;99775.25;;;31.31;33.55
13869;BME280;7004;48.206;16.402;2022-07-04T13:09:06;99773.19;;;31.57;34.15
13869;BME280;7004;48.206;16.402;2022-07-04T13:11:36;99763.84;;;31.76;35.14
13869;BME280;7004;48.206;16.402;2022-07-04T13:14:20;99770.09;;;32.31;35.05
13869;BME280;7004;48.206;16.402;2022-07-04T13:16:46;99764.25;;;32.04;35.44
13869;BME280;7004;48.206;16.402;2022-07-04T13:19:12;99758.09;;;32.20;36.10
13869;BME280;7004;48.206;16.402;2022-07-04T13:21:39;99749.50;;;32.40;35.67
13869;BME280;7004;48.206;16.402;2022-07-04T13:24:05;99752.69;;;32.72;34.82
13869;BME280;7004;48.206;16.402;2022-07-04T13:26:31;99753.47;;;32.20;34.06
13869;BME280;7004;48.206;16.402;2022-07-04T13:28:58;99744.91;;;32.05;35.21
13869;BME280;7004;48.206;16.402;2022-07-04T13:31:24;99746.75;;;31.81;35.44
13869;BME280;7004;48.206;16.402;2022-07-04T13:33:53;99743.94;;;31.99;36.20
13869;BME280;7004;48.206;16.402;2022-07-04T13:36:19;99743.25;;;32.04;36.12
13869;BME280;7004;48.206;16.402;2022-07-04T13:38:45;99747.97;;;32.32;35.26